GLO7542 SBPV-SBEG
Flight info
| Callsign | GLO7542 |
|---|---|
| Flight time | 1h 7m |
| Altitude | 33000 |
| Route | MUPEG UZ74 IGAPO |
| Aircraft | B738/M-SDE2E3FGHIRWXY/LB1 |
Departure
| Time | 2026-04-21 17:04 |
|---|---|
| Airport | Governador Jorge Teixeira de Oliveira International Airport (SBPV) |
Arrival
| Time | 2026-04-21 18:12 |
|---|---|
| Airport | Eduardo Gomes International Airport (SBEG) |
| Time | Latitude | Longitude | Altitude | Speed | Heading |
|---|---|---|---|---|---|
| 2026-04-21 16:59 | -8.71492 | -63.89936 | 299 ft | 0 kts | 86° |
| 2026-04-21 17:00 | -8.71493 | -63.89950 | 299 ft | 4 kts | 84° |
| 2026-04-21 17:00 | -8.71495 | -63.89978 | 299 ft | 4 kts | 85° |
| 2026-04-21 17:00 | -8.71497 | -63.89996 | 300 ft | 4 kts | 85° |
| 2026-04-21 17:00 | -8.71499 | -63.90031 | 302 ft | 3 kts | 91° |
| 2026-04-21 17:01 | -8.71497 | -63.90047 | 334 ft | 2 kts | 136° |
| 2026-04-21 17:01 | -8.71486 | -63.90052 | 340 ft | 2 kts | 175° |
| 2026-04-21 17:01 | -8.71482 | -63.90053 | 289 ft | 0 kts | 177° |
| 2026-04-21 17:02 | -8.71493 | -63.90052 | 318 ft | 7 kts | 176° |
| 2026-04-21 17:02 | -8.71596 | -63.90047 | 300 ft | 23 kts | 177° |
| 2026-04-21 17:02 | -8.71771 | -63.90035 | 301 ft | 25 kts | 176° |
| 2026-04-21 17:03 | -8.71922 | -63.90074 | 299 ft | 21 kts | 219° |
| 2026-04-21 17:03 | -8.71950 | -63.90170 | 299 ft | 13 kts | 341° |
| 2026-04-21 17:03 | -8.71922 | -63.90172 | 300 ft | 5 kts | 359° |
| 2026-04-21 17:03 | -8.71754 | -63.90181 | 300 ft | 55 kts | 356° |
| 2026-04-21 17:04 | -8.71136 | -63.90218 | 299 ft | 120 kts | 356° |
| 2026-04-21 17:04 | -8.70133 | -63.90281 | 387 ft | 161 kts | 356° |
| 2026-04-21 17:04 | -8.69018 | -63.90393 | 1012 ft | 164 kts | 353° |
| 2026-04-21 17:04 | -8.67869 | -63.90545 | 1625 ft | 167 kts | 352° |
| 2026-04-21 17:05 | -8.66709 | -63.90731 | 2273 ft | 170 kts | 351° |
| 2026-04-21 17:05 | -8.65587 | -63.90948 | 3110 ft | 159 kts | 349° |
| 2026-04-21 17:05 | -8.64486 | -63.91019 | 3705 ft | 165 kts | 8° |
| 2026-04-21 17:05 | -8.63414 | -63.90485 | 3991 ft | 185 kts | 44° |
| 2026-04-21 17:06 | -8.62411 | -63.89551 | 4240 ft | 211 kts | 43° |
| 2026-04-21 17:06 | -8.61251 | -63.88506 | 4453 ft | 233 kts | 42° |
| 2026-04-21 17:06 | -8.59985 | -63.87392 | 4918 ft | 244 kts | 41° |
| 2026-04-21 17:06 | -8.58694 | -63.86280 | 5517 ft | 247 kts | 40° |
| 2026-04-21 17:07 | -8.57334 | -63.85128 | 5868 ft | 266 kts | 40° |
| 2026-04-21 17:07 | -8.55872 | -63.83906 | 6393 ft | 276 kts | 39° |
| 2026-04-21 17:07 | -8.54384 | -63.82676 | 7057 ft | 280 kts | 39° |
| 2026-04-21 17:07 | -8.52858 | -63.81423 | 7756 ft | 282 kts | 39° |
| 2026-04-21 17:08 | -8.51311 | -63.80160 | 8422 ft | 287 kts | 39° |
| 2026-04-21 17:08 | -8.49752 | -63.78892 | 9061 ft | 292 kts | 39° |
| 2026-04-21 17:08 | -8.48170 | -63.77608 | 9694 ft | 296 kts | 39° |
| 2026-04-21 17:08 | -8.46535 | -63.76282 | 10269 ft | 303 kts | 39° |
| 2026-04-21 17:09 | -8.43028 | -63.73443 | 10657 ft | 342 kts | 39° |
| 2026-04-21 17:09 | -8.41146 | -63.71921 | 11123 ft | 349 kts | 39° |
| 2026-04-21 17:09 | -8.39259 | -63.70396 | 11756 ft | 350 kts | 40° |
| 2026-04-21 17:10 | -8.37344 | -63.68848 | 12394 ft | 352 kts | 39° |
| 2026-04-21 17:10 | -8.35436 | -63.67306 | 12997 ft | 356 kts | 39° |
| 2026-04-21 17:10 | -8.33484 | -63.65728 | 13632 ft | 359 kts | 40° |
| 2026-04-21 17:10 | -8.31544 | -63.64161 | 14200 ft | 362 kts | 39° |
| 2026-04-21 17:11 | -8.29555 | -63.62554 | 14766 ft | 365 kts | 39° |
| 2026-04-21 17:11 | -8.27585 | -63.60963 | 15318 ft | 368 kts | 39° |
| 2026-04-21 17:11 | -8.25557 | -63.59337 | 15883 ft | 371 kts | 38° |
| 2026-04-21 17:11 | -8.23434 | -63.57816 | 16456 ft | 374 kts | 34° |
| 2026-04-21 17:12 | -8.21280 | -63.56378 | 16979 ft | 378 kts | 33° |
| 2026-04-21 17:12 | -8.19049 | -63.54916 | 17554 ft | 380 kts | 33° |
| 2026-04-21 17:12 | -8.16840 | -63.53466 | 18038 ft | 384 kts | 33° |
| 2026-04-21 17:12 | -8.14580 | -63.51972 | 18520 ft | 387 kts | 33° |
| 2026-04-21 17:13 | -8.12322 | -63.50469 | 18973 ft | 391 kts | 34° |
| 2026-04-21 17:13 | -8.10065 | -63.48959 | 19398 ft | 394 kts | 34° |
| 2026-04-21 17:13 | -8.07764 | -63.47416 | 19881 ft | 395 kts | 34° |
| 2026-04-21 17:13 | -8.05475 | -63.45878 | 20223 ft | 400 kts | 34° |
| 2026-04-21 17:14 | -8.03139 | -63.44309 | 20670 ft | 402 kts | 34° |
| 2026-04-21 17:14 | -8.00804 | -63.42740 | 21095 ft | 405 kts | 34° |
| 2026-04-21 17:14 | -7.98468 | -63.41171 | 21480 ft | 409 kts | 34° |
| 2026-04-21 17:14 | -7.96095 | -63.39578 | 21892 ft | 411 kts | 34° |
| 2026-04-21 17:15 | -7.93692 | -63.37964 | 22303 ft | 414 kts | 34° |
| 2026-04-21 17:15 | -7.91278 | -63.36344 | 22701 ft | 416 kts | 35° |
| 2026-04-21 17:15 | -7.88888 | -63.34739 | 23088 ft | 419 kts | 35° |
| 2026-04-21 17:15 | -7.86432 | -63.33091 | 23471 ft | 422 kts | 35° |
| 2026-04-21 17:16 | -7.84006 | -63.31465 | 23788 ft | 424 kts | 35° |
| 2026-04-21 17:16 | -7.81533 | -63.29809 | 24128 ft | 425 kts | 35° |
| 2026-04-21 17:16 | -7.79050 | -63.28146 | 24464 ft | 427 kts | 35° |
| 2026-04-21 17:16 | -7.76597 | -63.26503 | 24741 ft | 430 kts | 35° |
| 2026-04-21 17:17 | -7.74085 | -63.24821 | 25065 ft | 431 kts | 35° |
| 2026-04-21 17:17 | -7.71587 | -63.23149 | 25403 ft | 433 kts | 35° |
| 2026-04-21 17:17 | -7.69063 | -63.21458 | 25727 ft | 434 kts | 35° |
| 2026-04-21 17:17 | -7.66571 | -63.19790 | 26028 ft | 436 kts | 35° |
| 2026-04-21 17:18 | -7.64034 | -63.18091 | 26329 ft | 438 kts | 35° |
| 2026-04-21 17:18 | -7.61479 | -63.16380 | 26632 ft | 439 kts | 34° |
| 2026-04-21 17:18 | -7.58946 | -63.14685 | 26929 ft | 441 kts | 34° |
| 2026-04-21 17:18 | -7.56406 | -63.12985 | 27636 ft | 431 kts | 34° |
| 2026-04-21 17:19 | -7.53925 | -63.11325 | 28183 ft | 428 kts | 35° |
| 2026-04-21 17:19 | -7.51424 | -63.09652 | 28459 ft | 431 kts | 35° |
| 2026-04-21 17:19 | -7.48924 | -63.07980 | 28680 ft | 435 kts | 34° |
| 2026-04-21 17:19 | -7.46385 | -63.06284 | 28943 ft | 437 kts | 34° |
| 2026-04-21 17:20 | -7.43862 | -63.04600 | 29254 ft | 439 kts | 34° |
| 2026-04-21 17:20 | -7.41301 | -63.02891 | 29563 ft | 440 kts | 34° |
| 2026-04-21 17:20 | -7.38740 | -63.01180 | 29849 ft | 442 kts | 34° |
| 2026-04-21 17:20 | -7.36194 | -62.99481 | 30098 ft | 443 kts | 34° |
| 2026-04-21 17:21 | -7.33606 | -62.97752 | 30339 ft | 445 kts | 35° |
| 2026-04-21 17:21 | -7.31048 | -62.96045 | 30584 ft | 446 kts | 35° |
| 2026-04-21 17:21 | -7.28448 | -62.94309 | 30824 ft | 447 kts | 35° |
| 2026-04-21 17:21 | -7.25848 | -62.92574 | 31060 ft | 448 kts | 35° |
| 2026-04-21 17:22 | -7.24121 | -62.91422 | 31207 ft | 449 kts | 35° |
| 2026-04-21 17:22 | -7.20647 | -62.89103 | 31508 ft | 451 kts | 35° |
| 2026-04-21 17:22 | -7.18019 | -62.87350 | 31719 ft | 452 kts | 35° |
| 2026-04-21 17:22 | -7.15391 | -62.85597 | 31935 ft | 453 kts | 35° |
| 2026-04-21 17:23 | -7.12778 | -62.83854 | 32150 ft | 454 kts | 35° |
| 2026-04-21 17:23 | -7.10138 | -62.82094 | 32525 ft | 451 kts | 35° |
| 2026-04-21 17:23 | -7.07519 | -62.80348 | 32914 ft | 448 kts | 35° |
| 2026-04-21 17:23 | -7.04933 | -62.78623 | 32902 ft | 452 kts | 35° |
| 2026-04-21 17:24 | -6.99645 | -62.75097 | 32928 ft | 459 kts | 35° |
| 2026-04-21 17:24 | -6.94306 | -62.71539 | 32930 ft | 462 kts | 35° |
| 2026-04-21 17:25 | -6.88946 | -62.67946 | 32928 ft | 464 kts | 35° |
| 2026-04-21 17:25 | -6.83554 | -62.64314 | 32923 ft | 465 kts | 35° |
| 2026-04-21 17:26 | -6.78195 | -62.60707 | 32926 ft | 464 kts | 35° |
| 2026-04-21 17:26 | -6.72841 | -62.57107 | 32926 ft | 463 kts | 36° |
| 2026-04-21 17:27 | -6.67506 | -62.53521 | 32928 ft | 461 kts | 36° |
| 2026-04-21 17:27 | -6.62184 | -62.49944 | 32932 ft | 460 kts | 36° |
| 2026-04-21 17:28 | -6.56876 | -62.46377 | 32928 ft | 459 kts | 36° |
| 2026-04-21 17:28 | -6.51546 | -62.42798 | 32929 ft | 458 kts | 36° |
| 2026-04-21 17:29 | -6.46221 | -62.39262 | 32931 ft | 458 kts | 35° |
| 2026-04-21 17:29 | -6.40936 | -62.35774 | 32931 ft | 458 kts | 35° |
| 2026-04-21 17:30 | -6.35598 | -62.32248 | 32931 ft | 458 kts | 35° |
| 2026-04-21 17:30 | -6.30281 | -62.28731 | 32933 ft | 458 kts | 35° |
| 2026-04-21 17:31 | -6.24943 | -62.25200 | 32933 ft | 458 kts | 35° |
| 2026-04-21 17:32 | -6.14887 | -62.18549 | 32936 ft | 460 kts | 35° |
| 2026-04-21 17:32 | -6.09521 | -62.15002 | 32931 ft | 461 kts | 35° |
| 2026-04-21 17:33 | -6.04176 | -62.11470 | 32935 ft | 461 kts | 35° |
| 2026-04-21 17:33 | -5.98791 | -62.07912 | 32940 ft | 463 kts | 35° |
| 2026-04-21 17:34 | -5.93399 | -62.04350 | 32936 ft | 464 kts | 35° |
| 2026-04-21 17:34 | -5.88008 | -62.00790 | 32931 ft | 465 kts | 35° |
| 2026-04-21 17:35 | -5.82596 | -61.97216 | 32930 ft | 466 kts | 35° |
| 2026-04-21 17:35 | -5.77163 | -61.93630 | 32930 ft | 466 kts | 35° |
| 2026-04-21 17:36 | -5.71768 | -61.90069 | 32930 ft | 466 kts | 35° |
| 2026-04-21 17:36 | -5.66360 | -61.86500 | 32932 ft | 465 kts | 35° |
| 2026-04-21 17:37 | -5.60942 | -61.82926 | 32923 ft | 464 kts | 35° |
| 2026-04-21 17:37 | -5.55388 | -61.79653 | 32927 ft | 463 kts | 30° |
| 2026-04-21 17:38 | -5.49666 | -61.76682 | 32920 ft | 462 kts | 29° |
| 2026-04-21 17:38 | -5.43986 | -61.73730 | 32923 ft | 461 kts | 30° |
| 2026-04-21 17:39 | -5.38302 | -61.70716 | 32922 ft | 460 kts | 30° |
| 2026-04-21 17:39 | -5.32695 | -61.67713 | 32923 ft | 459 kts | 30° |
| 2026-04-21 17:40 | -5.27050 | -61.64685 | 32917 ft | 459 kts | 30° |
| 2026-04-21 17:40 | -5.21433 | -61.61674 | 32917 ft | 459 kts | 30° |
| 2026-04-21 17:41 | -5.15796 | -61.58655 | 32918 ft | 459 kts | 30° |
| 2026-04-21 17:41 | -5.10169 | -61.55642 | 32920 ft | 459 kts | 30° |
| 2026-04-21 17:42 | -5.04527 | -61.52621 | 32915 ft | 460 kts | 30° |
| 2026-04-21 17:42 | -4.98857 | -61.49587 | 32916 ft | 461 kts | 30° |
| 2026-04-21 17:43 | -4.93194 | -61.46556 | 32915 ft | 462 kts | 30° |
| 2026-04-21 17:43 | -4.87553 | -61.43539 | 32918 ft | 462 kts | 30° |
| 2026-04-21 17:44 | -4.81879 | -61.40503 | 32913 ft | 463 kts | 30° |
| 2026-04-21 17:44 | -4.76208 | -61.37471 | 32917 ft | 463 kts | 30° |
| 2026-04-21 17:45 | -4.73380 | -61.35959 | 32893 ft | 451 kts | 30° |
| 2026-04-21 17:45 | -4.70651 | -61.34503 | 32885 ft | 436 kts | 30° |
| 2026-04-21 17:45 | -4.68015 | -61.33096 | 32560 ft | 429 kts | 30° |
| 2026-04-21 17:45 | -4.65403 | -61.31701 | 32215 ft | 423 kts | 30° |
| 2026-04-21 17:46 | -4.62808 | -61.30312 | 31812 ft | 420 kts | 30° |
| 2026-04-21 17:46 | -4.60253 | -61.28945 | 31413 ft | 417 kts | 30° |
| 2026-04-21 17:46 | -4.57691 | -61.27575 | 31010 ft | 414 kts | 30° |
| 2026-04-21 17:46 | -4.55173 | -61.26229 | 30592 ft | 412 kts | 30° |
| 2026-04-21 17:47 | -4.52636 | -61.24872 | 30186 ft | 411 kts | 30° |
| 2026-04-21 17:47 | -4.50136 | -61.23536 | 29736 ft | 409 kts | 30° |
| 2026-04-21 17:47 | -4.47628 | -61.22196 | 29289 ft | 406 kts | 30° |
| 2026-04-21 17:47 | -4.45137 | -61.20865 | 28849 ft | 403 kts | 30° |
| 2026-04-21 17:48 | -4.43492 | -61.19987 | 28558 ft | 401 kts | 30° |
| 2026-04-21 17:48 | -4.40232 | -61.18245 | 28016 ft | 397 kts | 30° |
| 2026-04-21 17:48 | -4.37788 | -61.16940 | 27595 ft | 395 kts | 30° |
| 2026-04-21 17:48 | -4.35378 | -61.15653 | 27184 ft | 392 kts | 30° |
| 2026-04-21 17:49 | -4.32998 | -61.14381 | 26789 ft | 390 kts | 30° |
| 2026-04-21 17:49 | -4.30600 | -61.13101 | 26378 ft | 388 kts | 30° |
| 2026-04-21 17:49 | -4.28210 | -61.11825 | 25981 ft | 386 kts | 30° |
| 2026-04-21 17:49 | -4.25859 | -61.10569 | 25568 ft | 384 kts | 30° |
| 2026-04-21 17:50 | -4.23491 | -61.09305 | 25162 ft | 383 kts | 30° |
| 2026-04-21 17:50 | -4.21160 | -61.08060 | 24754 ft | 382 kts | 30° |
| 2026-04-21 17:50 | -4.18809 | -61.06805 | 24352 ft | 381 kts | 30° |
| 2026-04-21 17:50 | -4.16463 | -61.05552 | 23948 ft | 380 kts | 30° |
| 2026-04-21 17:51 | -4.14158 | -61.04322 | 23556 ft | 379 kts | 30° |
| 2026-04-21 17:51 | -4.11820 | -61.03074 | 23100 ft | 378 kts | 29° |
| 2026-04-21 17:51 | -4.09525 | -61.01849 | 22686 ft | 375 kts | 29° |
| 2026-04-21 17:51 | -4.07217 | -61.00618 | 22269 ft | 373 kts | 29° |
| 2026-04-21 17:52 | -4.04928 | -60.99396 | 21881 ft | 370 kts | 29° |
| 2026-04-21 17:52 | -4.02671 | -60.98192 | 21487 ft | 368 kts | 29° |
| 2026-04-21 17:52 | -4.00415 | -60.96988 | 21111 ft | 366 kts | 29° |
| 2026-04-21 17:52 | -3.98195 | -60.95804 | 20730 ft | 364 kts | 29° |
| 2026-04-21 17:53 | -3.95961 | -60.94612 | 20354 ft | 362 kts | 29° |
| 2026-04-21 17:53 | -3.93744 | -60.93429 | 19970 ft | 360 kts | 29° |
| 2026-04-21 17:53 | -3.91553 | -60.92259 | 19587 ft | 359 kts | 29° |
| 2026-04-21 17:53 | -3.89343 | -60.91080 | 19190 ft | 358 kts | 28° |
| 2026-04-21 17:54 | -3.87141 | -60.89906 | 18818 ft | 357 kts | 28° |
| 2026-04-21 17:54 | -3.84973 | -60.88750 | 18445 ft | 356 kts | 29° |
| 2026-04-21 17:54 | -3.82777 | -60.87579 | 18037 ft | 355 kts | 28° |
| 2026-04-21 17:54 | -3.80590 | -60.86412 | 17631 ft | 353 kts | 29° |
| 2026-04-21 17:55 | -3.78424 | -60.85257 | 17243 ft | 351 kts | 28° |
| 2026-04-21 17:55 | -3.76292 | -60.84120 | 16873 ft | 349 kts | 28° |
| 2026-04-21 17:55 | -3.74161 | -60.82983 | 16501 ft | 347 kts | 29° |
| 2026-04-21 17:55 | -3.72028 | -60.81846 | 16135 ft | 345 kts | 29° |
| 2026-04-21 17:56 | -3.69946 | -60.80663 | 15767 ft | 343 kts | 34° |
| 2026-04-21 17:56 | -3.67997 | -60.79274 | 15409 ft | 341 kts | 37° |
| 2026-04-21 17:56 | -3.66134 | -60.77841 | 15048 ft | 340 kts | 38° |
| 2026-04-21 17:56 | -3.64264 | -60.76388 | 14675 ft | 339 kts | 39° |
| 2026-04-21 17:57 | -3.62390 | -60.74943 | 14307 ft | 338 kts | 38° |
| 2026-04-21 17:57 | -3.60539 | -60.73532 | 13948 ft | 337 kts | 38° |
| 2026-04-21 17:57 | -3.58656 | -60.72109 | 13557 ft | 337 kts | 37° |
| 2026-04-21 17:57 | -3.56785 | -60.70703 | 13178 ft | 335 kts | 38° |
| 2026-04-21 17:58 | -3.54938 | -60.69320 | 12807 ft | 333 kts | 38° |
| 2026-04-21 17:58 | -3.53082 | -60.67932 | 12443 ft | 331 kts | 37° |
| 2026-04-21 17:58 | -3.51236 | -60.66554 | 12087 ft | 329 kts | 37° |
| 2026-04-21 17:58 | -3.49403 | -60.65186 | 11730 ft | 328 kts | 37° |
| 2026-04-21 17:59 | -3.47590 | -60.63832 | 11378 ft | 326 kts | 37° |
| 2026-04-21 17:59 | -3.45766 | -60.62471 | 11032 ft | 324 kts | 38° |
| 2026-04-21 17:59 | -3.43956 | -60.61120 | 10665 ft | 323 kts | 38° |
| 2026-04-21 17:59 | -3.42153 | -60.59773 | 10347 ft | 321 kts | 37° |
| 2026-04-21 18:00 | -3.40402 | -60.58467 | 10181 ft | 313 kts | 37° |
| 2026-04-21 18:00 | -3.38661 | -60.57169 | 10043 ft | 305 kts | 37° |
| 2026-04-21 18:00 | -3.36998 | -60.55929 | 9881 ft | 298 kts | 38° |
| 2026-04-21 18:00 | -3.35325 | -60.54680 | 9505 ft | 299 kts | 38° |
| 2026-04-21 18:01 | -3.33656 | -60.53432 | 9202 ft | 297 kts | 37° |
| 2026-04-21 18:01 | -3.32027 | -60.52215 | 8896 ft | 296 kts | 38° |
| 2026-04-21 18:01 | -3.30367 | -60.50976 | 8600 ft | 294 kts | 38° |
| 2026-04-21 18:01 | -3.28744 | -60.49764 | 8309 ft | 292 kts | 37° |
| 2026-04-21 18:02 | -3.27663 | -60.48957 | 8121 ft | 290 kts | 37° |
| 2026-04-21 18:02 | -3.25501 | -60.47344 | 7740 ft | 288 kts | 37° |
| 2026-04-21 18:02 | -3.23914 | -60.46162 | 7463 ft | 286 kts | 37° |
| 2026-04-21 18:02 | -3.22318 | -60.44974 | 7176 ft | 284 kts | 38° |
| 2026-04-21 18:03 | -3.20735 | -60.43795 | 6883 ft | 283 kts | 38° |
| 2026-04-21 18:03 | -3.19152 | -60.42615 | 6606 ft | 282 kts | 38° |
| 2026-04-21 18:03 | -3.17600 | -60.41459 | 6328 ft | 281 kts | 37° |
| 2026-04-21 18:03 | -3.16029 | -60.40289 | 6026 ft | 280 kts | 38° |
| 2026-04-21 18:04 | -3.14464 | -60.39123 | 5710 ft | 279 kts | 38° |
| 2026-04-21 18:04 | -3.12930 | -60.37981 | 5424 ft | 277 kts | 38° |
| 2026-04-21 18:04 | -3.11382 | -60.36828 | 5180 ft | 274 kts | 37° |
| 2026-04-21 18:04 | -3.09851 | -60.35687 | 4920 ft | 273 kts | 38° |
| 2026-04-21 18:05 | -3.08352 | -60.34570 | 4655 ft | 271 kts | 37° |
| 2026-04-21 18:05 | -3.06833 | -60.33438 | 4370 ft | 270 kts | 37° |
| 2026-04-21 18:05 | -3.05330 | -60.32317 | 4178 ft | 265 kts | 39° |
| 2026-04-21 18:05 | -3.04186 | -60.30965 | 4050 ft | 252 kts | 67° |
| 2026-04-21 18:06 | -3.03776 | -60.29320 | 3961 ft | 236 kts | 85° |
| 2026-04-21 18:06 | -3.03747 | -60.27745 | 3852 ft | 223 kts | 90° |
| 2026-04-21 18:06 | -3.03769 | -60.26232 | 3759 ft | 210 kts | 90° |
| 2026-04-21 18:06 | -3.03787 | -60.24818 | 3584 ft | 203 kts | 90° |
| 2026-04-21 18:07 | -3.03799 | -60.23416 | 3375 ft | 200 kts | 90° |
| 2026-04-21 18:07 | -3.03811 | -60.22023 | 3174 ft | 198 kts | 89° |
| 2026-04-21 18:07 | -3.03819 | -60.20636 | 2968 ft | 198 kts | 90° |
| 2026-04-21 18:07 | -3.03825 | -60.19286 | 2761 ft | 192 kts | 90° |
| 2026-04-21 18:08 | -3.03829 | -60.17973 | 2552 ft | 182 kts | 89° |
| 2026-04-21 18:08 | -3.03833 | -60.16765 | 2366 ft | 167 kts | 89° |
| 2026-04-21 18:08 | -3.03835 | -60.15997 | 2118 ft | 161 kts | 89° |
| 2026-04-21 18:08 | -3.03838 | -60.14916 | 1934 ft | 153 kts | 88° |
| 2026-04-21 18:09 | -3.03840 | -60.13876 | 1729 ft | 149 kts | 89° |
| 2026-04-21 18:09 | -3.03842 | -60.12836 | 1538 ft | 148 kts | 89° |
| 2026-04-21 18:09 | -3.03844 | -60.11800 | 1343 ft | 149 kts | 89° |
| 2026-04-21 18:09 | -3.03847 | -60.10771 | 1153 ft | 149 kts | 88° |
| 2026-04-21 18:10 | -3.03849 | -60.09736 | 976 ft | 148 kts | 89° |
| 2026-04-21 18:10 | -3.03851 | -60.08700 | 810 ft | 147 kts | 89° |
| 2026-04-21 18:10 | -3.03863 | -60.07667 | 591 ft | 152 kts | 87° |
| 2026-04-21 18:10 | -3.03852 | -60.06627 | 389 ft | 142 kts | 88° |
| 2026-04-21 18:11 | -3.03857 | -60.05708 | 279 ft | 121 kts | 86° |
| 2026-04-21 18:11 | -3.03859 | -60.04954 | 270 ft | 92 kts | 90° |
| 2026-04-21 18:11 | -3.03859 | -60.04411 | 272 ft | 70 kts | 90° |
| 2026-04-21 18:11 | -3.03861 | -60.03953 | 271 ft | 59 kts | 90° |
| 2026-04-21 18:12 | -3.03828 | -60.03785 | 270 ft | 18 kts | 39° |
| 2026-04-21 18:12 | -3.03719 | -60.03792 | 273 ft | 17 kts | 317° |
| 2026-04-21 18:12 | -3.03671 | -60.03895 | 271 ft | 16 kts | 285° |
| 2026-04-21 18:12 | -3.03641 | -60.04001 | 270 ft | 15 kts | 284° |
| 2026-04-21 18:13 | -3.03614 | -60.04102 | 270 ft | 15 kts | 285° |
| 2026-04-21 18:13 | -3.03586 | -60.04201 | 270 ft | 14 kts | 289° |
| 2026-04-21 18:13 | -3.03538 | -60.04283 | 272 ft | 14 kts | 308° |
| 2026-04-21 18:13 | -3.03469 | -60.04344 | 270 ft | 13 kts | 330° |
| 2026-04-21 18:14 | -3.03335 | -60.04440 | 270 ft | 12 kts | 275° |
| 2026-04-21 18:14 | -3.03345 | -60.04525 | 270 ft | 12 kts | 262° |
| 2026-04-21 18:14 | -3.03353 | -60.04607 | 270 ft | 12 kts | 264° |
| 2026-04-21 18:15 | -3.03333 | -60.04652 | 270 ft | 6 kts | 351° |
| 2026-04-21 18:15 | -3.03293 | -60.04657 | 270 ft | 4 kts | 354° |
| 2026-04-21 18:15 | -3.03281 | -60.04657 | 270 ft | 1 kts | 359° |